Paris, VA

8:35 AM EDT on October 02, 2014 (GMT -0400)
Washington Dulles International | Change Station
CLOSE
Current Station
Airport
Location: Dulles Airport,
Elevation: 322 ft
Nearby Weather Stations

Elev 322 ft 38.93 °N, 77.45 °W | Updated 19 minutes ago

Fog
Fog
61 °F
Feels Like 61 °F
N
0
Wind Variable Wind from North

Today
High -- | Low -- °F
--% Chance of Precip.
Yesterday
High -- | Low -- °F
Precip. -- in
7:08 AM 6:52 PM
First Quarter, 58% visible
Pressure 30.14 in
Visibility 4.0 miles
Clouds Overcast 1500 ft
Dew Point 59 °F
Humidity 94%
Rainfall 0.00 in
Snow Depth Not available.
UV 0 out of 12
Pollen 3.60 out of 12
Ozone Good
PM2.5 Good
Flu Activity Not available.
SPECI KIAD 021216Z 00000KT 4SM BR OVC015 16/15 A3014 RMK AO2

More Conditions Fewer Conditions

Pressure 30.14 in
Visibility 4.0 miles
Clouds Overcast 1500 ft
Dew Point 59 °F
Humidity 94%
Rainfall 0.00 in
Snow Depth Not available.
UV 0 out of 12
Pollen 3.60 out of 12
Ozone Good
PM2.5 Good
Flu Activity Not available.
SPECI KIAD 021216Z 00000KT 4SM BR OVC015 16/15 A3014 RMK AO2

More Conditions Fewer Conditions

Nowcast | as of 8:19 am EDT on October 2, 2014

Patchy dense fog will continue to affect localized areas of the northern Virginia foothills and portions of the Shenandoah Valley this morning. Portions of the Interstate 81 corridor...from near Staunton...through Harrisonburg...Strasburg and Winchester. Visibilities may be reduced to a quarter mile or less. Motorists are encouraged to reduce speed and use low beam headlights.

×

10-Day Weather Forecast

Almanac

Astronomy

Oct. 02, 2014 Rise Set
Actual Time 7:08 AM EDT 6:52 PM EDT
Civil Twilight 6:42 AM EDT 7:19 PM EDT
Nautical Twilight 6:11 AM EDT 7:50 PM EDT
Astronomical Twilight 5:39 AM EDT 8:21 PM EDT
Moon 2:55 PM EDT 12:26 AM EDT
Length of Visible Light 12h 37m
Length of Day
11h 44m
Tomorrow will be 2m 31s shorter.
First Quarter, 58% of the Moon is Illuminated
Today
First Quarter
Oct 8
Full
Oct 15
Last Quarter
Oct 23
New
Oct 30
First Quarter

Today's Extremes

State Highs State Lows

Community

WunderPhotos

Upload Photos

1,758,223 photos uploaded!

WunderBlogs® & News

Nearby

Air Quality

  Air Quality AQ Index Pollutant
Yesterday Good
PM2.5
Yesterday Good
OZONE
Current Good
PM2.5
Current Good
OZONE
Thursday Moderate
PM2.5
Friday Good
PM2.5
Saturday Good
PM2.5

Snow Depth

Station Depth Elevation
No new snow has been reported.

Earthquake Activity

City Distance Mag. Time & Date
No recent earthquake activity has been reported nearby.
Minimum magnitude displayed is 2.5.

Coastal Water Temperatures

Place Temperature
No Stations Reporting

Nearby Weather Stations